createdAt,value
2022-11-30T00:01:20.565Z,102123.13
2022-11-30T00:03:47.903Z,102125.44
2022-11-30T00:06:17.104Z,102123.88
2022-11-30T00:08:43.847Z,102128.78
2022-11-30T00:11:15.645Z,102131.75
2022-11-30T00:13:42.191Z,102135.50
2022-11-30T00:16:09.738Z,102131.25
2022-11-30T00:18:36.989Z,102126.91
2022-11-30T00:21:05.958Z,102128.78
2022-11-30T00:23:37.428Z,102128.00
2022-11-30T00:26:07.050Z,102125.41
2022-11-30T00:28:35.082Z,102126.97
2022-11-30T00:31:07.495Z,102129.59
2022-11-30T00:33:37.374Z,102139.31
2022-11-30T00:36:09.052Z,102141.16
2022-11-30T00:38:36.007Z,102131.94
2022-11-30T00:41:03.291Z,102131.75
2022-11-30T00:43:30.215Z,102129.72
2022-11-30T00:45:57.246Z,102143.97
2022-11-30T00:48:23.907Z,102124.44
2022-11-30T00:50:51.088Z,102124.34
2022-11-30T00:53:18.831Z,102133.19
2022-11-30T00:55:45.960Z,102130.41
2022-11-30T00:58:12.530Z,102133.09
2022-11-30T01:00:40.320Z,102135.81
2022-11-30T01:03:07.233Z,102135.81
2022-11-30T01:05:34.613Z,102124.06
2022-11-30T01:08:03.269Z,102133.03
2022-11-30T01:10:30.168Z,102129.53
2022-11-30T01:12:57.057Z,102127.81
2022-11-30T01:15:23.867Z,102134.34
2022-11-30T01:17:50.396Z,102132.69
2022-11-30T01:20:17.278Z,102147.13
2022-11-30T01:22:43.849Z,102146.34
2022-11-30T01:25:11.004Z,102151.94
2022-11-30T01:27:37.470Z,102149.41
2022-11-30T01:30:05.463Z,102150.44
2022-11-30T01:32:32.235Z,102154.19
2022-11-30T01:34:58.735Z,102158.63
2022-11-30T01:37:25.361Z,102161.31
2022-11-30T01:39:51.901Z,102163.31
2022-11-30T01:42:20.263Z,102162.44
2022-11-30T01:44:51.173Z,102165.13
2022-11-30T01:47:20.045Z,102158.00
2022-11-30T01:49:49.840Z,102162.44
2022-11-30T01:52:51.524Z,102169.66
2022-11-30T01:55:36.199Z,102164.34
2022-11-30T01:58:11.368Z,102165.22
2022-11-30T02:00:43.184Z,102168.97
2022-11-30T02:03:41.008Z,102178.09
2022-11-30T02:06:08.263Z,102185.22
2022-11-30T02:08:34.896Z,102178.97
2022-11-30T02:11:06.058Z,102172.72
2022-11-30T02:13:48.127Z,102177.16
2022-11-30T02:16:58.408Z,102179.84
2022-11-30T02:19:43.542Z,102179.94
2022-11-30T02:22:42.949Z,102183.66
2022-11-30T02:25:18.214Z,102175.66
2022-11-30T02:27:56.685Z,102176.72
2022-11-30T02:30:24.275Z,102178.63
2022-11-30T02:32:58.228Z,102174.28
2022-11-30T02:35:29.913Z,102179.69
2022-11-30T02:37:58.126Z,102179.69
2022-11-30T02:40:24.734Z,102183.25
2022-11-30T02:42:54.090Z,102184.03
2022-11-30T02:45:29.795Z,102182.19
2022-11-30T02:48:09.693Z,102181.25
2022-11-30T02:50:44.667Z,102180.19
2022-11-30T02:53:11.510Z,102182.81
2022-11-30T02:55:38.031Z,102181.94
2022-11-30T02:58:05.467Z,102180.09
2022-11-30T03:00:32.173Z,102175.75
2022-11-30T03:02:58.697Z,102179.31
2022-11-30T03:05:25.216Z,102182.03
2022-11-30T03:07:51.720Z,102181.25
2022-11-30T03:10:18.390Z,102180.38
2022-11-30T03:12:44.958Z,102184.09
2022-11-30T03:15:11.548Z,102182.38
2022-11-30T03:17:38.060Z,102179.75
2022-11-30T03:20:05.261Z,102177.16
2022-11-30T03:22:31.711Z,102173.88
2022-11-30T03:24:58.246Z,102174.81
2022-11-30T03:27:24.772Z,102179.34
2022-11-30T03:29:51.273Z,102178.66
2022-11-30T03:32:18.896Z,102192.28
2022-11-30T03:34:45.726Z,102186.28
2022-11-30T03:37:12.376Z,102188.19
2022-11-30T03:39:38.828Z,102190.88
2022-11-30T03:42:05.442Z,102191.84
2022-11-30T03:44:31.903Z,102190.09
2022-11-30T03:46:58.458Z,102181.25
2022-11-30T03:49:24.930Z,102188.38
2022-11-30T03:51:51.376Z,102191.16
2022-11-30T03:54:17.983Z,102198.34
2022-11-30T03:56:44.495Z,102192.97
2022-11-30T03:59:11.006Z,102200.19
2022-11-30T04:01:41.967Z,102198.44
2022-11-30T04:04:08.533Z,102199.56
2022-11-30T04:06:35.064Z,102196.97
2022-11-30T04:09:01.741Z,102199.66
2022-11-30T04:11:29.432Z,102202.44
2022-11-30T04:13:55.899Z,102197.13
2022-11-30T04:16:22.805Z,102204.34
2022-11-30T04:18:49.380Z,102208.84
2022-11-30T04:21:15.866Z,102207.28
2022-11-30T04:23:42.324Z,102207.38
2022-11-30T04:26:12.189Z,102205.63
2022-11-30T04:28:38.787Z,102199.44
2022-11-30T04:31:06.588Z,102202.13
2022-11-30T04:33:33.402Z,102198.56
2022-11-30T04:36:03.327Z,102195.00
2022-11-30T04:38:30.347Z,102195.09
2022-11-30T04:40:57.020Z,102188.13
2022-11-30T04:43:23.911Z,102191.78
2022-11-30T04:45:50.624Z,102193.69
2022-11-30T04:48:18.811Z,102196.50
2022-11-30T04:50:45.298Z,102192.09
2022-11-30T04:53:12.313Z,102202.16
2022-11-30T04:55:40.954Z,102197.72
2022-11-30T04:58:07.820Z,102197.97
2022-11-30T05:00:35.282Z,102192.75
2022-11-30T05:03:02.051Z,102195.44
2022-11-30T05:05:28.615Z,102198.22
2022-11-30T05:07:57.560Z,102209.06
2022-11-30T05:10:24.988Z,102202.72
2022-11-30T05:12:51.917Z,102201.78
2022-11-30T05:15:18.602Z,102201.78
2022-11-30T05:17:45.162Z,102201.78
2022-11-30T05:20:11.858Z,102203.69
2022-11-30T05:22:38.396Z,102210.97
2022-11-30T05:25:05.176Z,102211.03
2022-11-30T05:27:31.727Z,102204.09
2022-11-30T05:29:59.007Z,102212.41
2022-11-30T05:32:25.503Z,102212.56
2022-11-30T05:34:52.307Z,102215.41
2022-11-30T05:37:19.488Z,102209.34
2022-11-30T05:39:46.080Z,102223.91
2022-11-30T05:42:12.620Z,102224.94
2022-11-30T05:44:39.084Z,102221.53
2022-11-30T05:47:05.674Z,102227.06
2022-11-30T05:49:32.237Z,102227.22
2022-11-30T05:51:58.757Z,102226.50
2022-11-30T05:54:25.225Z,102218.66
2022-11-30T05:56:54.945Z,102219.75
2022-11-30T05:59:25.864Z,102224.41
2022-11-30T06:01:53.144Z,102232.56
2022-11-30T06:04:20.104Z,102231.84
2022-11-30T06:06:46.874Z,102230.19
2022-11-30T06:09:15.712Z,102230.28
2022-11-30T06:11:42.211Z,102228.59
2022-11-30T06:14:08.974Z,102229.56
2022-11-30T06:16:35.586Z,102226.16
2022-11-30T06:19:02.120Z,102241.47
2022-11-30T06:21:28.591Z,102238.94
2022-11-30T06:23:55.155Z,102240.06
2022-11-30T06:26:21.637Z,102241.06
2022-11-30T06:28:48.969Z,102243.84
2022-11-30T06:31:16.205Z,102238.69
2022-11-30T06:33:43.173Z,102240.59
2022-11-30T06:36:09.775Z,102242.56
2022-11-30T06:38:36.382Z,102249.81
2022-11-30T06:41:09.833Z,102251.78
2022-11-30T06:43:38.361Z,102255.50
2022-11-30T06:46:06.893Z,102254.78
2022-11-30T06:48:34.733Z,102252.22
2022-11-30T06:51:08.879Z,102251.44
2022-11-30T06:53:36.186Z,102250.63
2022-11-30T06:56:10.361Z,102249.84
2022-11-30T06:58:39.071Z,102257.03
2022-11-30T07:01:08.045Z,102260.66
2022-11-30T07:03:34.680Z,102264.28
2022-11-30T07:06:01.193Z,102260.81
2022-11-30T07:08:27.687Z,102265.31
2022-11-30T07:10:54.257Z,102271.66
2022-11-30T07:13:20.755Z,102269.13
2022-11-30T07:15:47.346Z,102268.31
2022-11-30T07:18:14.003Z,102274.78
2022-11-30T07:20:40.544Z,102279.34
2022-11-30T07:23:25.844Z,102283.94
2022-11-30T07:26:06.279Z,102284.94
2022-11-30T07:28:38.455Z,102285.91
2022-11-30T07:31:16.632Z,102292.31
2022-11-30T07:33:46.281Z,102295.06
2022-11-30T07:36:13.155Z,102297.00
2022-11-30T07:38:39.740Z,102295.34
2022-11-30T07:41:06.708Z,102298.16
2022-11-30T07:43:33.279Z,102305.50
2022-11-30T07:46:18.638Z,102307.59
2022-11-30T07:48:46.611Z,102305.09
2022-11-30T07:51:21.610Z,102317.78
2022-11-30T07:53:48.413Z,102316.13
2022-11-30T07:56:18.279Z,102322.56
2022-11-30T07:58:45.163Z,102319.13
2022-11-30T08:01:14.864Z,102319.22
2022-11-30T08:03:41.931Z,102322.75
2022-11-30T08:06:13.858Z,102323.63
2022-11-30T08:08:44.927Z,102319.22
2022-11-30T08:11:14.346Z,102329.88
2022-11-30T08:13:41.843Z,102329.81
2022-11-30T08:16:12.925Z,102331.56
2022-11-30T08:18:40.894Z,102332.34
2022-11-30T08:21:09.030Z,102336.72
2022-11-30T08:23:40.852Z,102337.50
2022-11-30T08:26:29.366Z,102341.13
2022-11-30T08:28:57.020Z,102341.13
2022-11-30T08:31:26.988Z,102340.19
2022-11-30T08:34:02.084Z,102344.56
2022-11-30T08:36:29.668Z,102344.41
2022-11-30T08:39:01.002Z,102348.78
2022-11-30T08:41:27.988Z,102358.44
2022-11-30T08:43:54.922Z,102359.16
2022-11-30T08:49:25.487Z,102354.25
2022-11-30T08:57:33.413Z,102359.09
2022-11-30T08:59:59.852Z,102351.84
2022-11-30T09:02:26.465Z,102355.19
2022-11-30T09:04:53.529Z,102352.38
2022-11-30T09:07:20.258Z,102354.81
2022-11-30T09:09:47.295Z,102357.34
2022-11-30T09:12:13.720Z,102364.25
2022-11-30T09:14:40.187Z,102373.03
2022-11-30T09:17:06.632Z,102378.25
2022-11-30T09:19:33.191Z,102369.19
2022-11-30T09:22:00.474Z,102376.31
2022-11-30T09:24:26.996Z,102371.66
2022-11-30T09:26:56.725Z,102377.75
2022-11-30T09:29:23.860Z,102374.13
2022-11-30T09:31:51.658Z,102383.78
2022-11-30T09:34:18.281Z,102387.19
2022-11-30T09:36:44.800Z,102386.19
2022-11-30T09:39:13.887Z,102380.66
2022-11-30T09:41:53.917Z,102384.09
2022-11-30T09:44:23.392Z,102389.31
2022-11-30T09:47:05.030Z,102391.84
2022-11-30T09:49:37.256Z,102383.72
2022-11-30T09:52:09.782Z,102384.59
2022-11-30T09:54:38.723Z,102384.50
2022-11-30T09:57:32.515Z,102383.63
2022-11-30T10:00:02.465Z,102384.50
2022-11-30T10:02:39.537Z,102379.06
2022-11-30T10:05:15.756Z,102382.63
2022-11-30T10:07:51.559Z,102377.09
2022-11-30T10:10:35.897Z,102371.66
2022-11-30T10:13:05.642Z,102375.84
2022-11-30T10:15:44.424Z,102378.38
2022-11-30T10:18:23.229Z,102368.50
2022-11-30T10:21:05.306Z,102367.63
2022-11-30T10:23:58.660Z,102367.56
2022-11-30T10:26:38.150Z,102364.78
2022-11-30T10:29:18.855Z,102365.59
2022-11-30T10:31:49.098Z,102367.28
2022-11-30T10:34:21.181Z,102367.28
2022-11-30T10:37:13.971Z,102369.03
2022-11-30T10:39:58.937Z,102367.94
2022-11-30T10:42:32.884Z,102362.47
2022-11-30T10:45:00.558Z,102359.63
2022-11-30T10:47:36.654Z,102363.91
2022-11-30T10:50:07.875Z,102362.72
2022-11-30T10:53:01.082Z,102357.34
2022-11-30T10:55:36.271Z,102356.25
2022-11-30T10:58:13.287Z,102357.03
2022-11-30T11:00:39.788Z,102351.66
2022-11-30T11:03:24.262Z,102352.53
2022-11-30T11:06:20.942Z,102352.38
2022-11-30T11:08:47.595Z,102352.22
2022-11-30T11:11:37.370Z,102346.75
2022-11-30T11:14:16.115Z,102346.75
2022-11-30T11:16:57.157Z,102345.88
2022-11-30T11:19:41.846Z,102338.63
2022-11-30T11:22:21.694Z,102341.16
2022-11-30T11:24:50.559Z,102338.38
2022-11-30T11:27:31.900Z,102336.31
2022-11-30T11:30:28.653Z,102344.88
2022-11-30T11:33:13.623Z,102337.28
2022-11-30T11:35:45.839Z,102341.47
2022-11-30T11:38:27.105Z,102353.78
2022-11-30T11:41:02.425Z,102347.19
2022-11-30T11:43:32.272Z,102350.44
2022-11-30T11:46:11.892Z,102346.38
2022-11-30T11:48:46.010Z,102349.44
2022-11-30T11:51:13.921Z,102344.53
2022-11-30T11:53:53.625Z,102346.00
2022-11-30T11:56:32.758Z,102356.44
2022-11-30T11:59:32.160Z,102354.53
2022-11-30T12:02:14.107Z,102353.59
2022-11-30T12:04:41.455Z,102356.19
2022-11-30T12:07:24.205Z,102349.69
2022-11-30T12:10:02.990Z,102342.22
2022-11-30T12:12:29.568Z,102348.13
2022-11-30T12:14:56.670Z,102347.81
2022-11-30T12:17:35.324Z,102340.44
2022-11-30T12:20:18.328Z,102335.66
2022-11-30T12:22:50.592Z,102334.44
2022-11-30T12:25:27.654Z,102333.22
2022-11-30T12:28:21.979Z,102340.09
2022-11-30T12:30:51.392Z,102339.81
2022-11-30T12:33:44.255Z,102344.09
2022-11-30T12:36:31.654Z,102337.38
2022-11-30T12:39:04.542Z,102334.22
2022-11-30T12:41:51.403Z,102342.00
2022-11-30T12:44:44.801Z,102338.75
2022-11-30T12:47:20.956Z,102339.28
2022-11-30T12:49:57.859Z,102350.06
2022-11-30T12:52:58.377Z,102350.16
2022-11-30T12:55:54.567Z,102344.75
2022-11-30T12:58:36.309Z,102349.19
2022-11-30T13:01:43.051Z,102341.28
2022-11-30T13:04:19.353Z,102346.78
2022-11-30T13:06:52.842Z,102346.94
2022-11-30T13:09:30.180Z,102351.66
2022-11-30T13:12:04.227Z,102351.84
2022-11-30T13:14:33.631Z,102352.00
2022-11-30T13:17:06.482Z,102359.47
2022-11-30T13:19:39.848Z,102361.38
2022-11-30T13:22:14.723Z,102357.03
2022-11-30T13:24:47.880Z,102358.09
2022-11-30T13:27:22.840Z,102362.88
2022-11-30T13:29:54.820Z,102357.66
2022-11-30T13:32:56.213Z,102355.31
2022-11-30T13:35:29.876Z,102358.25
2022-11-30T13:38:28.630Z,102353.13
2022-11-30T13:40:58.340Z,102352.44
2022-11-30T13:43:28.755Z,102351.66
2022-11-30T13:46:05.945Z,102359.84
2022-11-30T13:48:37.575Z,102358.88
2022-11-30T13:51:04.998Z,102352.63
2022-11-30T13:53:35.854Z,102352.69
2022-11-30T13:56:05.654Z,102353.75
2022-11-30T13:58:32.803Z,102358.34
2022-11-30T14:01:23.401Z,102354.88
2022-11-30T14:04:14.418Z,102356.94
2022-11-30T14:06:51.237Z,102364.22
2022-11-30T14:09:40.194Z,102361.69
2022-11-30T14:12:31.658Z,102359.00
2022-11-30T14:14:59.682Z,102363.53
2022-11-30T14:17:27.992Z,102365.50
2022-11-30T14:20:00.330Z,102366.72
2022-11-30T14:22:29.618Z,102372.19
2022-11-30T14:24:56.607Z,102380.38
2022-11-30T14:27:25.116Z,102380.38
2022-11-30T14:29:57.244Z,102384.97
2022-11-30T14:32:48.882Z,102382.44
2022-11-30T14:35:20.728Z,102391.41
2022-11-30T14:37:56.054Z,102388.78
2022-11-30T14:40:26.203Z,102396.06
2022-11-30T14:42:55.957Z,102391.88
2022-11-30T14:45:29.097Z,102398.31
2022-11-30T14:48:17.853Z,102399.34
2022-11-30T14:50:48.234Z,102394.13
2022-11-30T14:53:55.266Z,102393.41
2022-11-30T14:56:36.068Z,102402.38
2022-11-30T14:59:49.328Z,102398.00
2022-11-30T15:02:29.389Z,102398.88
2022-11-30T15:04:57.883Z,102399.06
2022-11-30T15:07:25.419Z,102401.91
2022-11-30T15:10:08.971Z,102407.44
2022-11-30T15:12:40.841Z,102400.41
2022-11-30T15:15:15.912Z,102399.69
2022-11-30T15:17:53.388Z,102397.00
2022-11-30T15:20:38.777Z,102399.69
2022-11-30T15:23:05.405Z,102396.94
2022-11-30T15:25:39.056Z,102403.09
2022-11-30T15:28:07.318Z,102392.25
2022-11-30T15:30:38.498Z,102395.81
2022-11-30T15:33:05.504Z,102387.72
2022-11-30T15:35:50.372Z,102395.88
2022-11-30T15:38:25.722Z,102396.06
2022-11-30T15:41:03.117Z,102402.38
2022-11-30T15:43:37.428Z,102399.94
2022-11-30T15:46:04.875Z,102398.19
2022-11-30T15:48:38.484Z,102401.91
2022-11-30T15:51:05.869Z,102405.56
2022-11-30T15:53:35.988Z,102407.47
2022-11-30T15:56:08.686Z,102397.78
2022-11-30T15:58:36.876Z,102400.53
2022-11-30T16:01:14.179Z,102407.91
2022-11-30T16:03:55.650Z,102407.03
2022-11-30T16:06:35.080Z,102413.38
2022-11-30T16:09:18.668Z,102416.13
2022-11-30T16:11:53.847Z,102418.03
2022-11-30T16:14:20.632Z,102422.59
2022-11-30T16:16:47.969Z,102418.16
2022-11-30T16:19:14.610Z,102420.06
2022-11-30T16:21:41.462Z,102415.63
2022-11-30T16:24:13.502Z,102422.84
2022-11-30T16:26:55.610Z,102423.84
2022-11-30T16:29:22.544Z,102415.78
2022-11-30T16:31:49.198Z,102424.88
2022-11-30T16:34:15.806Z,102419.50
2022-11-30T16:36:43.336Z,102430.28
2022-11-30T16:39:12.182Z,102427.66
2022-11-30T16:41:38.765Z,102435.81
2022-11-30T16:44:12.201Z,102433.19
2022-11-30T16:46:38.646Z,102432.25
2022-11-30T16:49:05.173Z,102439.44
2022-11-30T16:51:36.189Z,102442.06
2022-11-30T16:54:03.072Z,102451.06
2022-11-30T16:56:29.665Z,102443.88
2022-11-30T16:58:56.195Z,102440.31
2022-11-30T17:01:35.096Z,102445.69
2022-11-30T17:04:24.045Z,102442.22
2022-11-30T17:06:53.649Z,102451.06
2022-11-30T17:09:23.046Z,102449.34
2022-11-30T17:11:50.930Z,102460.03
2022-11-30T17:14:18.216Z,102463.59
2022-11-30T17:16:44.825Z,102458.19
2022-11-30T17:19:11.734Z,102465.25
2022-11-30T17:21:40.111Z,102464.38
2022-11-30T17:24:07.364Z,102467.16
2022-11-30T17:26:33.977Z,102472.44
2022-11-30T17:29:00.484Z,102460.81
2022-11-30T17:31:27.173Z,102468.81
2022-11-30T17:33:53.780Z,102467.88
2022-11-30T17:36:20.362Z,102465.09
2022-11-30T17:38:46.901Z,102470.47
2022-11-30T17:41:19.096Z,102473.16
2022-11-30T17:43:46.027Z,102469.53
2022-11-30T17:46:15.759Z,102476.72
2022-11-30T17:48:45.991Z,102477.69
2022-11-30T17:51:14.653Z,102473.16
2022-11-30T17:53:44.370Z,102478.63
2022-11-30T17:56:19.553Z,102480.53
2022-11-30T17:59:00.216Z,102477.03
2022-11-30T18:01:29.590Z,102479.81
2022-11-30T18:04:05.474Z,102476.41
2022-11-30T18:06:40.886Z,102481.06
2022-11-30T18:09:10.833Z,102474.81
2022-11-30T18:11:40.664Z,102480.34
2022-11-30T18:14:07.292Z,102481.28
2022-11-30T18:16:37.144Z,102487.63
2022-11-30T18:19:12.358Z,102482.22
2022-11-30T18:21:40.244Z,102482.22
2022-11-30T18:24:07.554Z,102482.31
2022-11-30T18:26:35.537Z,102489.50
2022-11-30T18:29:02.709Z,102491.31
2022-11-30T18:31:31.269Z,102500.41
2022-11-30T18:34:00.099Z,102493.38
2022-11-30T18:36:27.196Z,102504.28
2022-11-30T18:38:54.460Z,102510.59
2022-11-30T18:41:22.931Z,102511.53
2022-11-30T18:43:50.123Z,102518.75
2022-11-30T18:46:16.647Z,102512.50
2022-11-30T18:48:43.215Z,102524.13
2022-11-30T18:51:21.075Z,102528.72
2022-11-30T18:53:47.872Z,102523.31
2022-11-30T18:56:17.793Z,102525.22
2022-11-30T18:58:45.181Z,102520.78
2022-11-30T19:01:18.205Z,102520.84
2022-11-30T19:03:53.527Z,102524.41
2022-11-30T19:06:21.004Z,102527.97
2022-11-30T19:08:48.117Z,102526.22
2022-11-30T19:11:15.555Z,102525.28
2022-11-30T19:13:42.333Z,102522.69
2022-11-30T19:16:15.808Z,102525.44
2022-11-30T19:18:44.884Z,102522.81
2022-11-30T19:21:14.239Z,102530.88
2022-11-30T19:23:41.124Z,102524.72
2022-11-30T19:26:09.903Z,102530.09
2022-11-30T19:28:38.008Z,102522.09
2022-11-30T19:31:16.014Z,102528.41
2022-11-30T19:33:45.332Z,102527.53
2022-11-30T19:36:14.952Z,102531.19
2022-11-30T19:38:41.540Z,102533.00
2022-11-30T19:41:09.782Z,102530.22
2022-11-30T19:43:36.937Z,102532.91
2022-11-30T19:46:18.763Z,102522.09
2022-11-30T19:48:45.756Z,102526.59
2022-11-30T19:51:18.033Z,102524.84
2022-11-30T19:53:45.317Z,102530.22
2022-11-30T19:56:17.341Z,102534.75
2022-11-30T19:58:45.757Z,102534.81
2022-11-30T20:01:19.352Z,102540.19
2022-11-30T20:03:45.936Z,102537.50
2022-11-30T20:06:12.455Z,102544.75
2022-11-30T20:08:38.957Z,102552.91
2022-11-30T20:11:07.004Z,102546.69
2022-11-30T20:13:33.527Z,102547.56
2022-11-30T20:16:06.451Z,102551.19
2022-11-30T20:18:32.999Z,102545.88
2022-11-30T20:21:16.690Z,102550.53
2022-11-30T20:23:44.734Z,102545.22
2022-11-30T20:26:30.091Z,102547.91
2022-11-30T20:28:58.399Z,102548.88
2022-11-30T20:31:26.236Z,102547.13
2022-11-30T20:33:52.757Z,102544.50
2022-11-30T20:36:20.670Z,102542.75
2022-11-30T20:38:47.501Z,102549.88
2022-11-30T20:41:20.019Z,102548.06
2022-11-30T20:43:47.202Z,102553.16
2022-11-30T20:46:19.203Z,102553.78
2022-11-30T20:48:46.428Z,102554.38
2022-11-30T20:51:30.603Z,102554.94
2022-11-30T20:54:01.063Z,102558.28
2022-11-30T20:56:27.775Z,102556.25
2022-11-30T20:58:54.340Z,102564.19
2022-11-30T21:01:22.254Z,102561.50
2022-11-30T21:03:49.414Z,102563.16
2022-11-30T21:06:16.823Z,102559.38
2022-11-30T21:08:43.708Z,102560.09
2022-11-30T21:11:16.229Z,102560.84
2022-11-30T21:13:44.205Z,102562.44
2022-11-30T21:16:11.958Z,102564.19
2022-11-30T21:18:40.411Z,102571.38
2022-11-30T21:21:13.211Z,102566.00
2022-11-30T21:23:40.064Z,102573.13
2022-11-30T21:26:08.760Z,102566.00
2022-11-30T21:28:38.193Z,102567.88
2022-11-30T21:31:05.927Z,102566.22
2022-11-30T21:33:32.791Z,102570.72
2022-11-30T21:36:01.491Z,102561.94
2022-11-30T21:38:28.040Z,102555.75
2022-11-30T21:40:59.902Z,102561.06
2022-11-30T21:43:28.017Z,102559.31
2022-11-30T21:46:03.230Z,102558.38
2022-11-30T21:48:34.099Z,102554.00
2022-11-30T21:51:08.711Z,102553.13
2022-11-30T21:53:37.911Z,102561.28
2022-11-30T21:56:13.555Z,102557.84
2022-11-30T21:58:42.106Z,102560.63
2022-11-30T22:01:12.632Z,102563.38
2022-11-30T22:03:39.182Z,102558.00
2022-11-30T22:06:12.779Z,102558.22
2022-11-30T22:08:40.083Z,102558.22
2022-11-30T22:11:10.455Z,102560.09
2022-11-30T22:13:37.599Z,102558.44
2022-11-30T22:16:12.657Z,102568.41
2022-11-30T22:18:39.915Z,102572.84
2022-11-30T22:21:14.621Z,102568.47
2022-11-30T22:24:02.561Z,102566.78
2022-11-30T22:26:30.588Z,102574.00
2022-11-30T22:29:01.386Z,102560.63
2022-11-30T22:31:33.975Z,102572.31
2022-11-30T22:34:01.016Z,102571.38
2022-11-30T22:36:30.437Z,102573.19
2022-11-30T22:39:02.831Z,102575.94
2022-11-30T22:41:30.094Z,102576.91
2022-11-30T22:43:57.527Z,102581.53
2022-11-30T22:46:28.487Z,102579.84
2022-11-30T22:48:55.674Z,102576.34
2022-11-30T22:51:24.918Z,102583.53
2022-11-30T22:53:52.603Z,102584.41
2022-11-30T22:56:27.699Z,102585.28
2022-11-30T22:58:55.963Z,102587.91
2022-11-30T23:01:31.458Z,102589.72
2022-11-30T23:04:01.418Z,102592.41
2022-11-30T23:06:28.008Z,102589.72
2022-11-30T23:08:54.716Z,102588.09
2022-11-30T23:11:24.019Z,102584.75
2022-11-30T23:13:50.593Z,102579.44
2022-11-30T23:16:18.223Z,102580.53
2022-11-30T23:18:48.323Z,102581.53
2022-11-30T23:21:24.267Z,102579.72
2022-11-30T23:23:50.909Z,102586.84
2022-11-30T23:26:26.026Z,102582.34
2022-11-30T23:28:54.138Z,102582.28
2022-11-30T23:31:33.513Z,102577.78
2022-11-30T23:34:09.011Z,102575.22
2022-11-30T23:36:36.754Z,102576.25
2022-11-30T23:39:10.215Z,102580.81
2022-11-30T23:41:36.864Z,102582.69
2022-11-30T23:44:03.864Z,102579.19
2022-11-30T23:46:31.101Z,102590.88
2022-11-30T23:48:57.669Z,102585.50
2022-11-30T23:51:24.701Z,102589.22
2022-11-30T23:53:51.361Z,102585.78
2022-11-30T23:56:19.823Z,102584.03
2022-11-30T23:58:46.614Z,102586.72
